Datum - Zeit
Döttingen
TemperaturTaupunktFeuchteSolar Wind aus
Richtung
Windböenaus
Richtung
Luftdruck
(QFF)
RegenRegen
Stärke
08.02.2023 - 00.00Uhr-1.3 °C-4.0 °C82 %0.0 W/m²1.3 km/hOst-SO4.0 km/hOst-SO1036.7 hPa0.0 mm0.0 mm/h
08.02.2023 - 00.05Uhr-1.4 °C-4.1 °C82 %0.0 W/m²1.1 km/hOst-SO4.0 km/hOst-SO1036.7 hPa0.0 mm0.0 mm/h
08.02.2023 - 00.10Uhr-1.4 °C-4.1 °C82 %0.0 W/m²2.3 km/hOst-SO8.3 km/hOst-SO1036.7 hPa0.0 mm0.0 mm/h
08.02.2023 - 00.15Uhr-1.4 °C-4.1 °C82 %0.0 W/m²0.9 km/hOst-SO4.0 km/hOst-SO1036.6 hPa0.0 mm0.0 mm/h
08.02.2023 - 00.20Uhr-1.5 °C-4.2 °C82 %0.0 W/m²2.7 km/hOst-SO8.3 km/hOst-SO1036.7 hPa0.0 mm0.0 mm/h
08.02.2023 - 00.25Uhr-1.6 °C-4.3 °C81 %0.0 W/m²3.9 km/hOst-SO8.3 km/hOst-SO1036.6 hPa0.0 mm0.0 mm/h
08.02.2023 - 00.30Uhr-1.6 °C-4.4 °C81 %0.0 W/m²1.9 km/hOst-SO4.0 km/hOst-SO1036.6 hPa0.0 mm0.0 mm/h
08.02.2023 - 00.35Uhr-1.7 °C-4.5 °C81 %0.0 W/m²4.9 km/hOst-SO12.2 km/hOst-SO1036.6 hPa0.0 mm0.0 mm/h
08.02.2023 - 00.40Uhr-1.7 °C-4.5 °C81 %0.0 W/m²5.8 km/hOst-SO8.3 km/hOst-SO1036.6 hPa0.0 mm0.0 mm/h
08.02.2023 - 00.45Uhr-1.8 °C-4.5 °C82 %0.0 W/m²2.7 km/hOst-SO8.3 km/hOst-SO1036.5 hPa0.0 mm0.0 mm/h
08.02.2023 - 00.50Uhr-1.8 °C-4.6 °C81 %0.0 W/m²1.7 km/hOst-SO8.3 km/hOst-SO1036.4 hPa0.0 mm0.0 mm/h
08.02.2023 - 00.55Uhr-1.8 °C-4.6 °C81 %0.0 W/m²1.0 km/hOst-SO4.0 km/hOst-SO1036.4 hPa0.0 mm0.0 mm/h
08.02.2023 - 01.00Uhr-1.9 °C-4.7 °C81 %0.0 W/m²1.9 km/hOst-SO8.3 km/hOst-SO1036.2 hPa0.0 mm0.0 mm/h
08.02.2023 - 01.05Uhr-1.9 °C-4.7 °C81 %0.0 W/m²3.2 km/hOst-SO12.2 km/hOst-SO1036.1 hPa0.0 mm0.0 mm/h
08.02.2023 - 01.10Uhr-1.9 °C-4.7 °C81 %0.0 W/m²3.2 km/hOst-SO8.3 km/hOst-SO1036.0 hPa0.0 mm0.0 mm/h
08.02.2023 - 01.15Uhr-2.0 °C-4.9 °C80 %0.0 W/m²0.4 km/hOst-SO1.8 km/hOst-SO1035.9 hPa0.0 mm0.0 mm/h
08.02.2023 - 01.20Uhr-2.0 °C-5.0 °C80 %0.0 W/m²2.2 km/hOst-SO8.3 km/hOst-SO1035.9 hPa0.0 mm0.0 mm/h
08.02.2023 - 01.25Uhr-2.0 °C-5.0 °C80 %0.0 W/m²3.4 km/hOst-SO8.3 km/hOst-SO1035.9 hPa0.0 mm0.0 mm/h
08.02.2023 - 01.30Uhr-2.1 °C-5.1 °C80 %0.0 W/m²1.6 km/hOst-SO8.3 km/hOst-SO1035.8 hPa0.0 mm0.0 mm/h
08.02.2023 - 01.35Uhr-2.1 °C-5.1 °C80 %0.0 W/m²4.0 km/hOst-SO8.3 km/hOst-SO1035.8 hPa0.0 mm0.0 mm/h
08.02.2023 - 01.40Uhr-2.1 °C-5.1 °C80 %0.0 W/m²2.2 km/hOst-SO8.3 km/hOst-SO1035.8 hPa0.0 mm0.0 mm/h
08.02.2023 - 01.45Uhr-2.1 °C-5.2 °C79 %0.0 W/m²4.6 km/hOst-SO12.2 km/hOst-SO1035.8 hPa0.0 mm0.0 mm/h
08.02.2023 - 01.50Uhr-2.1 °C-5.2 °C79 %0.0 W/m²5.4 km/hOst-SO12.2 km/hOst-SO1035.8 hPa0.0 mm0.0 mm/h
08.02.2023 - 01.55Uhr-2.1 °C-5.2 °C79 %0.0 W/m²2.0 km/hOst-SO8.3 km/hOst-SO1035.8 hPa0.0 mm0.0 mm/h
08.02.2023 - 02.00Uhr-2.1 °C-5.2 °C79 %0.0 W/m²1.7 km/hOst-SO8.3 km/hOst-SO1035.7 hPa0.0 mm0.0 mm/h
08.02.2023 - 02.05Uhr-2.1 °C-5.2 °C79 %0.0 W/m²3.4 km/hOst-SO8.3 km/hOst-SO1035.6 hPa0.0 mm0.0 mm/h
08.02.2023 - 02.10Uhr-2.1 °C-5.2 °C79 %0.0 W/m²2.5 km/hOst-SO8.3 km/hOst-SO1035.6 hPa0.0 mm0.0 mm/h
08.02.2023 - 02.15Uhr-2.1 °C-5.2 °C79 %0.0 W/m²1.6 km/hOst-SO4.0 km/hOst-SO1035.6 hPa0.0 mm0.0 mm/h
08.02.2023 - 02.20Uhr-2.1 °C-5.4 °C78 %0.0 W/m²2.3 km/hOst-SO10.1 km/hOst-SO1035.5 hPa0.0 mm0.0 mm/h
08.02.2023 - 02.25Uhr-2.1 °C-5.4 °C78 %0.0 W/m²0.0 km/hOst-SO0.0 km/hNorden1035.5 hPa0.0 mm0.0 mm/h
08.02.2023 - 02.30Uhr-2.2 °C-5.5 °C78 %0.0 W/m²2.0 km/hOst-SO8.3 km/hOst-SO1035.5 hPa0.0 mm0.0 mm/h
08.02.2023 - 02.35Uhr-2.2 °C-5.5 °C78 %0.0 W/m²2.0 km/hOst-SO8.3 km/hOst-SO1035.4 hPa0.0 mm0.0 mm/h
08.02.2023 - 02.40Uhr-2.2 °C-5.5 °C78 %0.0 W/m²3.9 km/hOst-SO12.2 km/hOsten1035.4 hPa0.0 mm0.0 mm/h
08.02.2023 - 02.45Uhr-2.2 °C-5.5 °C78 %0.0 W/m²2.2 km/hOsten4.0 km/hOsten1035.4 hPa0.0 mm0.0 mm/h
08.02.2023 - 02.50Uhr-2.2 °C-5.5 °C78 %0.0 W/m²2.5 km/hOsten8.3 km/hOsten1035.4 hPa0.0 mm0.0 mm/h
08.02.2023 - 02.55Uhr-2.2 °C-5.7 °C77 %0.0 W/m²0.0 km/hOsten0.0 km/hNorden1035.5 hPa0.0 mm0.0 mm/h
08.02.2023 - 03.00Uhr-2.2 °C-5.7 °C77 %0.0 W/m²1.7 km/hOsten8.3 km/hOsten1035.5 hPa0.0 mm0.0 mm/h
08.02.2023 - 03.05Uhr-2.2 °C-5.7 °C77 %0.0 W/m²3.3 km/hOsten8.3 km/hOsten1035.4 hPa0.0 mm0.0 mm/h
08.02.2023 - 03.10Uhr-2.2 °C-5.7 °C77 %0.0 W/m²3.8 km/hOsten8.3 km/hOsten1035.4 hPa0.0 mm0.0 mm/h
08.02.2023 - 03.15Uhr-2.1 °C-5.6 °C77 %0.0 W/m²5.6 km/hOsten12.2 km/hOsten1035.3 hPa0.0 mm0.0 mm/h
08.02.2023 - 03.20Uhr-2.1 °C-5.6 °C77 %0.0 W/m²2.3 km/hOsten8.3 km/hOsten1035.3 hPa0.0 mm0.0 mm/h
08.02.2023 - 03.25Uhr-2.2 °C-5.7 °C77 %0.0 W/m²2.4 km/hOsten8.3 km/hOsten1035.3 hPa0.0 mm0.0 mm/h
08.02.2023 - 03.30Uhr-2.2 °C-5.7 °C77 %0.0 W/m²3.2 km/hOsten8.3 km/hOsten1035.3 hPa0.0 mm0.0 mm/h
08.02.2023 - 03.35Uhr-2.2 °C-5.7 °C77 %0.0 W/m²1.4 km/hOsten4.0 km/hOsten1035.3 hPa0.0 mm0.0 mm/h
08.02.2023 - 03.40Uhr-2.2 °C-5.7 °C77 %0.0 W/m²2.0 km/hOsten4.0 km/hOsten1035.3 hPa0.0 mm0.0 mm/h
08.02.2023 - 03.45Uhr-2.3 °C-5.8 °C77 %0.0 W/m²0.6 km/hOsten1.8 km/hOsten1035.3 hPa0.0 mm0.0 mm/h
08.02.2023 - 03.50Uhr-2.3 °C-5.8 °C77 %0.0 W/m²2.9 km/hOsten8.3 km/hOsten1035.3 hPa0.0 mm0.0 mm/h
08.02.2023 - 03.55Uhr-2.3 °C-5.8 °C77 %0.0 W/m²1.4 km/hOsten4.0 km/hOsten1035.3 hPa0.0 mm0.0 mm/h
08.02.2023 - 04.00Uhr-2.3 °C-5.8 °C77 %0.0 W/m²3.3 km/hOsten8.3 km/hOsten1035.3 hPa0.0 mm0.0 mm/h
08.02.2023 - 04.05Uhr-2.3 °C-6.0 °C76 %0.0 W/m²2.4 km/hOsten4.0 km/hOsten1035.3 hPa0.0 mm0.0 mm/h
08.02.2023 - 04.10Uhr-2.3 °C-5.9 °C77 %0.0 W/m²0.7 km/hOsten1.8 km/hOsten1035.3 hPa0.0 mm0.0 mm/h
08.02.2023 - 04.15Uhr-2.4 °C-5.9 °C77 %0.0 W/m²0.0 km/hOsten0.0 km/hNorden1035.3 hPa0.0 mm0.0 mm/h
08.02.2023 - 04.20Uhr-2.4 °C-5.9 °C77 %0.0 W/m²0.9 km/hOsten4.0 km/hOsten1035.3 hPa0.0 mm0.0 mm/h
08.02.2023 - 04.25Uhr-2.5 °C-6.0 °C77 %0.0 W/m²1.8 km/hOsten4.0 km/hOsten1035.3 hPa0.0 mm0.0 mm/h
08.02.2023 - 04.30Uhr-2.6 °C-6.2 °C76 %0.0 W/m²4.8 km/hOsten12.2 km/hNordosten1035.3 hPa0.0 mm0.0 mm/h
08.02.2023 - 04.35Uhr-2.6 °C-6.2 °C76 %0.0 W/m²4.6 km/hNord-NO10.1 km/hNord-NO1035.3 hPa0.0 mm0.0 mm/h
08.02.2023 - 04.40Uhr-2.7 °C-6.2 °C77 %0.0 W/m²4.1 km/hNord-NO8.3 km/hNord-NO1035.4 hPa0.0 mm0.0 mm/h
08.02.2023 - 04.45Uhr-2.7 °C-6.2 °C77 %0.0 W/m²2.1 km/hNord-NO5.8 km/hNord-NO1035.3 hPa0.0 mm0.0 mm/h
08.02.2023 - 04.50Uhr-2.7 °C-6.2 °C77 %0.0 W/m²3.3 km/hNord-NO8.3 km/hNord-NO1035.3 hPa0.0 mm0.0 mm/h
08.02.2023 - 04.55Uhr-2.7 °C-6.2 °C77 %0.0 W/m²3.7 km/hNord-NO10.1 km/hNord-NO1035.3 hPa0.0 mm0.0 mm/h
08.02.2023 - 05.00Uhr-2.8 °C-6.3 °C76 %0.0 W/m²2.3 km/hNord-NO5.8 km/hNord-NO1035.2 hPa0.0 mm0.0 mm/h
08.02.2023 - 05.05Uhr-2.8 °C-6.4 °C76 %0.0 W/m²1.5 km/hNord-NO5.8 km/hNord-NO1035.1 hPa0.0 mm0.0 mm/h
08.02.2023 - 05.10Uhr-2.8 °C-6.4 °C76 %0.0 W/m²1.4 km/hNord-NO4.0 km/hNord-NO1035.1 hPa0.0 mm0.0 mm/h
08.02.2023 - 05.15Uhr-2.8 °C-6.4 °C76 %0.0 W/m²2.9 km/hNord-NO5.8 km/hNord-NO1035.1 hPa0.0 mm0.0 mm/h
08.02.2023 - 05.20Uhr-2.9 °C-6.5 °C76 %0.0 W/m²1.3 km/hNord-NO4.0 km/hNord-NO1035.1 hPa0.0 mm0.0 mm/h
08.02.2023 - 05.25Uhr-2.9 °C-6.5 °C76 %0.0 W/m²0.7 km/hNord-NO1.8 km/hNord-NO1035.1 hPa0.0 mm0.0 mm/h
08.02.2023 - 05.30Uhr-2.9 °C-6.5 °C76 %0.0 W/m²2.0 km/hNord-NO8.3 km/hNord-NO1035.1 hPa0.0 mm0.0 mm/h
08.02.2023 - 05.35Uhr-2.9 °C-6.5 °C76 %0.0 W/m²1.7 km/hNord-NO5.8 km/hNord-NO1035.0 hPa0.0 mm0.0 mm/h
08.02.2023 - 05.40Uhr-2.9 °C-6.5 °C76 %0.0 W/m²1.0 km/hNord-NO4.0 km/hNord-NO1035.0 hPa0.0 mm0.0 mm/h
08.02.2023 - 05.45Uhr-2.9 °C-6.5 °C76 %0.0 W/m²1.0 km/hNord-NO4.0 km/hNord-NO1035.0 hPa0.0 mm0.0 mm/h
08.02.2023 - 05.50Uhr-2.9 °C-6.5 °C76 %0.0 W/m²3.5 km/hNord-NO8.3 km/hNord-NO1035.0 hPa0.0 mm0.0 mm/h
08.02.2023 - 05.55Uhr-3.0 °C-6.5 °C77 %0.0 W/m²2.7 km/hNord-NO5.8 km/hNord-NO1035.0 hPa0.0 mm0.0 mm/h
08.02.2023 - 06.00Uhr-3.2 °C-6.7 °C77 %0.0 W/m²4.5 km/hNord-NO5.8 km/hNord-NO1035.0 hPa0.0 mm0.0 mm/h
08.02.2023 - 06.05Uhr-3.3 °C-6.6 °C78 %0.0 W/m²4.8 km/hNord-NO8.3 km/hNord-NO1035.0 hPa0.0 mm0.0 mm/h
08.02.2023 - 06.10Uhr-3.3 °C-6.6 °C78 %0.0 W/m²3.8 km/hNord-NO8.3 km/hNord-NO1035.0 hPa0.0 mm0.0 mm/h
08.02.2023 - 06.15Uhr-3.3 °C-6.6 °C78 %0.0 W/m²3.9 km/hNord-NO8.3 km/hNord-NO1035.0 hPa0.0 mm0.0 mm/h
08.02.2023 - 06.20Uhr-3.3 °C-6.5 °C79 %0.0 W/m²3.0 km/hNord-NO5.8 km/hNord-NO1035.1 hPa0.0 mm0.0 mm/h
08.02.2023 - 06.25Uhr-3.3 °C-6.4 °C79 %0.0 W/m²3.5 km/hNord-NO5.8 km/hNord-NO1035.1 hPa0.0 mm0.0 mm/h
08.02.2023 - 06.30Uhr-3.3 °C-6.4 °C79 %0.0 W/m²3.4 km/hNord-NO5.8 km/hNord-NO1035.0 hPa0.0 mm0.0 mm/h
08.02.2023 - 06.35Uhr-3.3 °C-6.3 °C80 %0.0 W/m²2.5 km/hNord-NO4.0 km/hNord-NO1034.9 hPa0.0 mm0.0 mm/h
08.02.2023 - 06.40Uhr-3.3 °C-6.3 °C80 %0.0 W/m²2.5 km/hNord-NO4.0 km/hNord-NO1035.0 hPa0.0 mm0.0 mm/h
08.02.2023 - 06.45Uhr-3.4 °C-6.4 °C80 %0.0 W/m²2.1 km/hNord-NO4.0 km/hNord-NO1035.1 hPa0.0 mm0.0 mm/h
08.02.2023 - 06.50Uhr-3.4 °C-6.4 °C80 %0.0 W/m²2.4 km/hNord-NO4.0 km/hNord-NO1035.0 hPa0.0 mm0.0 mm/h
08.02.2023 - 06.55Uhr-3.4 °C-6.4 °C80 %0.0 W/m²2.8 km/hNord-NO4.0 km/hNord-NO1035.1 hPa0.0 mm0.0 mm/h
08.02.2023 - 07.00Uhr-3.5 °C-6.4 °C80 %0.0 W/m²3.7 km/hNord-NO5.8 km/hNord-NO1035.1 hPa0.0 mm0.0 mm/h
08.02.2023 - 07.05Uhr-3.6 °C-6.4 °C81 %0.0 W/m²2.9 km/hNord-NO5.8 km/hNord-NO1035.2 hPa0.0 mm0.0 mm/h
08.02.2023 - 07.10Uhr-3.6 °C-6.4 °C81 %0.0 W/m²2.8 km/hNord-NO5.8 km/hNord-NO1035.2 hPa0.0 mm0.0 mm/h
08.02.2023 - 07.15Uhr-3.7 °C-6.5 °C81 %0.0 W/m²2.5 km/hNord-NO4.0 km/hNord-NO1035.2 hPa0.0 mm0.0 mm/h
08.02.2023 - 07.20Uhr-3.7 °C-6.5 °C81 %0.0 W/m²2.8 km/hNord-NO8.3 km/hNord-NO1035.3 hPa0.0 mm0.0 mm/h
08.02.2023 - 07.25Uhr-3.8 °C-6.6 °C81 %0.0 W/m²1.8 km/hNord-NO4.0 km/hNord-NO1035.4 hPa0.0 mm0.0 mm/h
08.02.2023 - 07.30Uhr-3.8 °C-6.6 °C81 %0.0 W/m²2.2 km/hNord-NO5.8 km/hNord-NO1035.4 hPa0.0 mm0.0 mm/h
08.02.2023 - 07.35Uhr-3.8 °C-6.6 °C81 %0.0 W/m²3.2 km/hNord-NO5.8 km/hNord-NO1035.4 hPa0.0 mm0.0 mm/h
08.02.2023 - 07.40Uhr-3.8 °C-6.7 °C80 %5.0 W/m²2.2 km/hNord-NO5.8 km/hNord-NO1035.3 hPa0.0 mm0.0 mm/h
08.02.2023 - 07.45Uhr-3.8 °C-6.7 °C80 %5.0 W/m²0.0 km/hNord-NO0.0 km/hNorden1035.4 hPa0.0 mm0.0 mm/h
08.02.2023 - 07.50Uhr-3.8 °C-6.7 °C80 %9.0 W/m²0.5 km/hNord-NO1.8 km/hNord-NO1035.4 hPa0.0 mm0.0 mm/h
08.02.2023 - 07.55Uhr-3.8 °C-6.7 °C80 %11.0 W/m²1.7 km/hNord-NO4.0 km/hNord-NO1035.4 hPa0.0 mm0.0 mm/h
08.02.2023 - 08.00Uhr-3.8 °C-6.7 °C80 %14.0 W/m²0.0 km/hNord-NO0.0 km/hNorden1035.4 hPa0.0 mm0.0 mm/h
08.02.2023 - 08.05Uhr-3.8 °C-6.7 °C80 %16.0 W/m²0.0 km/hNord-NO0.0 km/hNorden1035.5 hPa0.0 mm0.0 mm/h
08.02.2023 - 08.10Uhr-3.9 °C-6.8 °C80 %18.0 W/m²1.9 km/hNord-NO4.0 km/hNord-NO1035.5 hPa0.0 mm0.0 mm/h
08.02.2023 - 08.15Uhr-3.9 °C-6.8 °C80 %19.0 W/m²1.6 km/hNord-NO5.8 km/hNord-NO1035.6 hPa0.0 mm0.0 mm/h
08.02.2023 - 08.20Uhr-4.0 °C-6.8 °C81 %23.0 W/m²2.5 km/hNord-NO4.0 km/hNord-NO1035.6 hPa0.0 mm0.0 mm/h
08.02.2023 - 08.25Uhr-4.0 °C-6.8 °C81 %26.0 W/m²2.9 km/hNord-NO5.8 km/hNord-NO1035.6 hPa0.0 mm0.0 mm/h
08.02.2023 - 08.30Uhr-4.0 °C-6.8 °C81 %40.0 W/m²2.0 km/hNord-NO4.0 km/hNord-NO1035.6 hPa0.0 mm0.0 mm/h
08.02.2023 - 08.35Uhr-3.9 °C-6.7 °C81 %35.0 W/m²1.6 km/hNord-NO5.8 km/hNord-NO1035.6 hPa0.0 mm0.0 mm/h
08.02.2023 - 08.40Uhr-3.9 °C-6.7 °C81 %32.0 W/m²1.7 km/hNord-NO4.0 km/hNord-NO1035.6 hPa0.0 mm0.0 mm/h
08.02.2023 - 08.45Uhr-3.8 °C-6.6 °C81 %33.0 W/m²1.0 km/hNord-NO4.0 km/hNord-NO1035.6 hPa0.0 mm0.0 mm/h
08.02.2023 - 08.50Uhr-3.7 °C-6.5 °C81 %35.0 W/m²1.3 km/hNord-NO4.0 km/hNord-NO1035.7 hPa0.0 mm0.0 mm/h
08.02.2023 - 08.55Uhr-3.7 °C-6.5 °C81 %37.0 W/m²1.9 km/hNord-NO4.0 km/hNord-NO1035.7 hPa0.0 mm0.0 mm/h
08.02.2023 - 09.00Uhr-3.5 °C-6.4 °C81 %39.0 W/m²2.4 km/hNord-NO5.8 km/hNord-NO1035.7 hPa0.0 mm0.0 mm/h
08.02.2023 - 09.05Uhr-3.4 °C-6.4 °C80 %40.0 W/m²2.2 km/hNord-NO5.8 km/hNord-NO1035.8 hPa0.0 mm0.0 mm/h
08.02.2023 - 09.10Uhr-3.3 °C-6.3 °C80 %40.0 W/m²4.9 km/hOst-SO12.2 km/hOst-SO1035.8 hPa0.0 mm0.0 mm/h
08.02.2023 - 09.15Uhr-3.1 °C-6.2 °C79 %44.0 W/m²1.8 km/hOst-SO8.3 km/hOst-SO1035.8 hPa0.0 mm0.0 mm/h
08.02.2023 - 09.20Uhr-2.9 °C-6.0 °C79 %79.0 W/m²2.8 km/hOst-SO8.3 km/hOst-SO1035.8 hPa0.0 mm0.0 mm/h
08.02.2023 - 09.25Uhr-2.8 °C-5.9 °C79 %160.0 W/m²2.3 km/hOst-SO8.3 km/hOst-SO1035.8 hPa0.0 mm0.0 mm/h
08.02.2023 - 09.30Uhr-2.6 °C-5.9 °C78 %171.0 W/m²9.8 km/hOst-SO16.2 km/hOst-SO1035.8 hPa0.0 mm0.0 mm/h
08.02.2023 - 09.35Uhr-2.2 °C-5.6 °C78 %181.0 W/m²9.9 km/hOst-SO16.2 km/hOst-SO1035.8 hPa0.0 mm0.0 mm/h
08.02.2023 - 09.40Uhr-1.9 °C-5.5 °C77 %186.0 W/m²7.2 km/hOst-SO16.2 km/hOst-SO1035.8 hPa0.0 mm0.0 mm/h
08.02.2023 - 09.45Uhr-1.7 °C-5.4 °C76 %188.0 W/m²7.0 km/hOst-SO10.1 km/hOst-SO1035.8 hPa0.0 mm0.0 mm/h
08.02.2023 - 09.50Uhr-1.5 °C-5.3 °C75 %190.0 W/m²4.7 km/hOst-SO12.2 km/hOst-SO1035.8 hPa0.0 mm0.0 mm/h
08.02.2023 - 09.55Uhr-1.3 °C-5.2 °C75 %192.0 W/m²6.3 km/hOst-SO14.0 km/hOst-SO1035.7 hPa0.0 mm0.0 mm/h
08.02.2023 - 10.00Uhr-1.0 °C-5.1 °C74 %199.0 W/m²8.4 km/hOst-SO16.2 km/hSüdosten1035.7 hPa0.0 mm0.0 mm/h
08.02.2023 - 10.05Uhr-0.8 °C-5.0 °C73 %213.0 W/m²9.5 km/hSüdosten16.2 km/hSüdosten1035.7 hPa0.0 mm0.0 mm/h
08.02.2023 - 10.10Uhr-0.7 °C-5.1 °C72 %227.0 W/m²7.7 km/hOst-SO16.2 km/hOst-SO1035.7 hPa0.0 mm0.0 mm/h
08.02.2023 - 10.15Uhr-0.6 °C-5.0 °C72 %244.0 W/m²6.3 km/hOst-SO14.0 km/hOst-SO1035.7 hPa0.0 mm0.0 mm/h
08.02.2023 - 10.20Uhr-0.5 °C-4.9 °C72 %257.0 W/m²8.6 km/hSüdosten18.0 km/hOst-SO1035.7 hPa0.0 mm0.0 mm/h
08.02.2023 - 10.25Uhr-0.3 °C-4.9 °C71 %272.0 W/m²8.7 km/hOst-SO14.0 km/hOst-SO1035.7 hPa0.0 mm0.0 mm/h
08.02.2023 - 10.30Uhr-0.3 °C-4.9 °C71 %290.0 W/m²7.4 km/hOst-SO14.0 km/hOst-SO1035.7 hPa0.0 mm0.0 mm/h
08.02.2023 - 10.35Uhr-0.2 °C-4.9 °C70 %311.0 W/m²8.0 km/hOst-SO12.2 km/hOst-SO1035.6 hPa0.0 mm0.0 mm/h
08.02.2023 - 10.40Uhr-0.1 °C-4.9 °C70 %325.0 W/m²7.5 km/hOst-SO12.2 km/hOst-SO1035.6 hPa0.0 mm0.0 mm/h
08.02.2023 - 10.45Uhr0.0 °C-4.6 °C71 %334.0 W/m²7.0 km/hOst-SO14.0 km/hSüdosten1035.7 hPa0.0 mm0.0 mm/h
08.02.2023 - 10.50Uhr0.1 °C-4.7 °C70 %338.0 W/m²12.1 km/hOst-SO18.0 km/hOst-SO1035.7 hPa0.0 mm0.0 mm/h
08.02.2023 - 10.55Uhr0.1 °C-4.6 °C71 %345.0 W/m²8.1 km/hSüdosten14.0 km/hSüdosten1035.7 hPa0.0 mm0.0 mm/h
08.02.2023 - 11.00Uhr0.1 °C-4.5 °C71 %350.0 W/m²12.4 km/hSüdosten18.0 km/hOst-SO1035.7 hPa0.0 mm0.0 mm/h
08.02.2023 - 11.05Uhr0.1 °C-4.7 °C70 %357.0 W/m²10.0 km/hOst-SO22.0 km/hOst-SO1035.7 hPa0.0 mm0.0 mm/h
08.02.2023 - 11.10Uhr0.1 °C-4.7 °C70 %366.0 W/m²7.7 km/hOst-SO14.0 km/hOst-SO1035.7 hPa0.0 mm0.0 mm/h
08.02.2023 - 11.15Uhr0.2 °C-4.5 °C71 %376.0 W/m²9.3 km/hSüdosten16.2 km/hSüd-SO1035.7 hPa0.0 mm0.0 mm/h
08.02.2023 - 11.20Uhr0.3 °C-4.3 °C71 %380.0 W/m²10.8 km/hOst-SO22.0 km/hSüdosten1035.6 hPa0.0 mm0.0 mm/h
08.02.2023 - 11.25Uhr0.3 °C-4.5 °C70 %388.0 W/m²12.4 km/hOst-SO18.0 km/hOst-SO1035.6 hPa0.0 mm0.0 mm/h
08.02.2023 - 11.30Uhr0.3 °C-4.4 °C70 %392.0 W/m²9.6 km/hSüdosten12.2 km/hOst-SO1035.6 hPa0.0 mm0.0 mm/h
08.02.2023 - 11.35Uhr0.4 °C-4.3 °C70 %397.0 W/m²7.5 km/hOst-SO18.0 km/hSüdosten1035.5 hPa0.0 mm0.0 mm/h
08.02.2023 - 11.40Uhr0.5 °C-4.3 °C70 %406.0 W/m²8.0 km/hOst-SO12.2 km/hOst-SO1035.4 hPa0.0 mm0.0 mm/h
08.02.2023 - 11.45Uhr0.6 °C-4.2 °C70 %408.0 W/m²6.7 km/hOst-SO14.0 km/hOst-SO1035.4 hPa0.0 mm0.0 mm/h
08.02.2023 - 11.50Uhr0.7 °C-4.2 °C70 %413.0 W/m²6.5 km/hOst-SO14.0 km/hOst-SO1035.4 hPa0.0 mm0.0 mm/h
08.02.2023 - 11.55Uhr0.8 °C-4.0 °C70 %417.0 W/m²10.4 km/hSüdosten22.0 km/hSüdosten1035.4 hPa0.0 mm0.0 mm/h
08.02.2023 - 12.00Uhr0.8 °C-4.0 °C70 %417.0 W/m²11.9 km/hSüdosten22.0 km/hOst-SO1035.4 hPa0.0 mm0.0 mm/h
08.02.2023 - 12.05Uhr0.9 °C-4.0 °C70 %422.0 W/m²11.4 km/hSüdosten22.0 km/hSüd-SO1035.4 hPa0.0 mm0.0 mm/h
08.02.2023 - 12.10Uhr1.1 °C-3.8 °C70 %424.0 W/m²12.7 km/hSüdosten22.0 km/hSüdosten1035.3 hPa0.0 mm0.0 mm/h
08.02.2023 - 12.15Uhr1.1 °C-4.0 °C69 %427.0 W/m²11.2 km/hSüdosten18.0 km/hOst-SO1035.3 hPa0.0 mm0.0 mm/h
08.02.2023 - 12.20Uhr1.1 °C-4.0 °C69 %431.0 W/m²12.2 km/hSüdosten24.5 km/hOst-SO1035.3 hPa0.0 mm0.0 mm/h
08.02.2023 - 12.25Uhr1.2 °C-3.9 °C69 %432.0 W/m²12.4 km/hSüd-SO16.2 km/hSüdosten1035.2 hPa0.0 mm0.0 mm/h
08.02.2023 - 12.30Uhr1.3 °C-3.8 °C69 %432.0 W/m²11.5 km/hSüdosten24.5 km/hSüd-SO1035.1 hPa0.0 mm0.0 mm/h
08.02.2023 - 12.35Uhr1.3 °C-3.8 °C69 %434.0 W/m²11.4 km/hSüdosten14.0 km/hOst-SO1035.1 hPa0.0 mm0.0 mm/h
08.02.2023 - 12.40Uhr1.5 °C-3.6 °C69 %438.0 W/m²11.6 km/hSüdosten18.0 km/hSüdosten1035.0 hPa0.0 mm0.0 mm/h
08.02.2023 - 12.45Uhr1.6 °C-3.6 °C68 %436.0 W/m²12.1 km/hSüdosten22.0 km/hOst-SO1035.0 hPa0.0 mm0.0 mm/h
08.02.2023 - 12.50Uhr1.6 °C-3.7 °C68 %434.0 W/m²13.9 km/hSüdosten24.5 km/hOst-SO1034.9 hPa0.0 mm0.0 mm/h
08.02.2023 - 12.55Uhr1.7 °C-3.7 °C68 %434.0 W/m²13.8 km/hSüdosten28.4 km/hOst-SO1034.8 hPa0.0 mm0.0 mm/h
08.02.2023 - 13.00Uhr1.7 °C-3.8 °C67 %432.0 W/m²12.4 km/hSüdosten18.0 km/hSüd-SO1034.8 hPa0.0 mm0.0 mm/h
08.02.2023 - 13.05Uhr1.7 °C-3.8 °C67 %431.0 W/m²9.7 km/hSüd-SO18.0 km/hSüdosten1034.7 hPa0.0 mm0.0 mm/h
08.02.2023 - 13.10Uhr1.8 °C-3.8 °C67 %429.0 W/m²12.7 km/hSüdosten18.0 km/hSüd-SO1034.7 hPa0.0 mm0.0 mm/h
08.02.2023 - 13.15Uhr1.8 °C-3.7 °C67 %429.0 W/m²12.5 km/hSüdosten22.0 km/hSüdosten1034.7 hPa0.0 mm0.0 mm/h
08.02.2023 - 13.20Uhr2.0 °C-3.4 °C68 %429.0 W/m²10.8 km/hSüd-SO24.5 km/hSüdosten1034.6 hPa0.0 mm0.0 mm/h
08.02.2023 - 13.25Uhr2.1 °C-3.4 °C67 %424.0 W/m²11.1 km/hSüd-SO16.2 km/hSüd-SO1034.6 hPa0.0 mm0.0 mm/h
08.02.2023 - 13.30Uhr2.1 °C-3.4 °C67 %420.0 W/m²10.6 km/hSüdosten18.0 km/hSüdosten1034.5 hPa0.0 mm0.0 mm/h
08.02.2023 - 13.35Uhr2.2 °C-3.5 °C66 %417.0 W/m²12.4 km/hSüdosten22.0 km/hOst-SO1034.5 hPa0.0 mm0.0 mm/h
08.02.2023 - 13.40Uhr2.2 °C-3.5 °C66 %413.0 W/m²14.2 km/hOst-SO22.0 km/hOst-SO1034.5 hPa0.0 mm0.0 mm/h
08.02.2023 - 13.45Uhr2.1 °C-3.7 °C65 %410.0 W/m²14.4 km/hOst-SO24.5 km/hSüdosten1034.4 hPa0.0 mm0.0 mm/h
08.02.2023 - 13.50Uhr2.1 °C-3.6 °C66 %406.0 W/m²9.3 km/hSüdosten14.0 km/hSüdosten1034.3 hPa0.0 mm0.0 mm/h
08.02.2023 - 13.55Uhr2.2 °C-3.5 °C66 %401.0 W/m²12.4 km/hOst-SO22.0 km/hSüden1034.2 hPa0.0 mm0.0 mm/h
08.02.2023 - 14.00Uhr2.2 °C-3.5 °C66 %394.0 W/m²12.0 km/hSüdosten22.0 km/hOst-SO1034.1 hPa0.0 mm0.0 mm/h
08.02.2023 - 14.05Uhr2.3 °C-3.5 °C65 %390.0 W/m²12.1 km/hSüdosten18.0 km/hSüdosten1034.1 hPa0.0 mm0.0 mm/h
08.02.2023 - 14.10Uhr2.3 °C-3.4 °C66 %387.0 W/m²8.6 km/hSüd-SO12.2 km/hSüdosten1034.1 hPa0.0 mm0.0 mm/h
08.02.2023 - 14.15Uhr2.4 °C-3.4 °C66 %381.0 W/m²10.6 km/hSüd-SO16.2 km/hSüd-SO1034.0 hPa0.0 mm0.0 mm/h
08.02.2023 - 14.20Uhr2.5 °C-3.3 °C66 %373.0 W/m²8.3 km/hSüd-SO16.2 km/hSüd-SO1033.9 hPa0.0 mm0.0 mm/h
08.02.2023 - 14.25Uhr2.6 °C-3.3 °C65 %366.0 W/m²10.8 km/hSüd-SO14.0 km/hSüdosten1033.9 hPa0.0 mm0.0 mm/h
08.02.2023 - 14.30Uhr2.6 °C-3.4 °C65 %360.0 W/m²10.2 km/hSüden16.2 km/hSüd-SO1033.8 hPa0.0 mm0.0 mm/h
08.02.2023 - 14.35Uhr2.6 °C-3.3 °C65 %353.0 W/m²9.2 km/hSüd-SO16.2 km/hSüd-SO1033.7 hPa0.0 mm0.0 mm/h
08.02.2023 - 14.40Uhr2.6 °C-3.2 °C65 %343.0 W/m²6.8 km/hSüd-SO14.0 km/hSüdosten1033.7 hPa0.0 mm0.0 mm/h
08.02.2023 - 14.45Uhr2.8 °C-3.2 °C65 %334.0 W/m²10.2 km/hSüdosten16.2 km/hOst-SO1033.7 hPa0.0 mm0.0 mm/h
08.02.2023 - 14.50Uhr11.2 km/hSüd-SO12.2 km/hSüd-SO